Uwharie, North Carolina
Current Conditions -  °F | °C
As of 5:35 AM on Thursday 18 Dec 2014 (Local Time) from KVUJ Reporting Station
Clear Clear  
Wind Chill: 31°   Ceiling: Unl
Heat Index: 31°   Visibility: 10mi
Dew Point: 31°   Wind: 0mph
Humidity: 98%   Direction: NA
Pressure: 30.17"   Gusts: NA
Location:  35.4086°N, 79.9566°W
Report Text: KVUJ 181035Z AUTO 00000KT 10SM CLR 00/M01 A3017 RMK AO2 T10051008
Loading
Personal Weather Stations






























Interactive Weather Map New forecast layout! Learn more

10-Day Weather Forecast

Advertisements
Track Severe Weather on mobile